createdAt,value
2023-05-06T00:00:55.911Z,17.72
2023-05-06T00:03:23.349Z,17.70
2023-05-06T00:05:53.081Z,17.69
2023-05-06T00:08:20.727Z,17.66
2023-05-06T00:10:48.176Z,17.64
2023-05-06T00:13:16.127Z,17.55
2023-05-06T00:15:43.609Z,17.68
2023-05-06T00:18:10.992Z,17.71
2023-05-06T00:20:38.387Z,17.61
2023-05-06T00:23:07.886Z,17.63
2023-05-06T00:25:35.259Z,17.63
2023-05-06T00:28:02.612Z,17.64
2023-05-06T00:30:30.160Z,17.55
2023-05-06T00:32:57.541Z,17.44
2023-05-06T00:35:25.086Z,17.57
2023-05-06T00:38:08.766Z,17.55
2023-05-06T00:40:36.619Z,17.47
2023-05-06T00:43:04.008Z,17.57
2023-05-06T00:45:31.908Z,17.50
2023-05-06T00:47:59.450Z,17.51
2023-05-06T00:50:29.712Z,17.51
2023-05-06T00:52:59.346Z,17.47
2023-05-06T00:55:27.868Z,17.53
2023-05-06T00:57:55.321Z,17.55
2023-05-06T01:00:22.996Z,17.47
2023-05-06T01:02:50.533Z,17.39
2023-05-06T01:05:21.068Z,17.41
2023-05-06T01:08:09.553Z,17.14
2023-05-06T01:10:43.017Z,17.11
2023-05-06T01:13:31.816Z,17.03
2023-05-06T01:16:01.572Z,17.02
2023-05-06T01:18:32.372Z,17.02
2023-05-06T01:21:01.889Z,17.08
2023-05-06T01:23:29.223Z,17.18
2023-05-06T01:25:56.939Z,17.09
2023-05-06T01:28:24.290Z,17.21
2023-05-06T01:31:11.617Z,17.18
2023-05-06T01:33:49.925Z,17.03
2023-05-06T01:36:32.818Z,17.07
2023-05-06T01:39:02.268Z,17.06
2023-05-06T01:41:34.023Z,17.14
2023-05-06T01:44:01.915Z,17.03
2023-05-06T01:46:30.641Z,16.85
2023-05-06T01:49:01.214Z,16.74
2023-05-06T01:51:28.672Z,16.65
2023-05-06T01:53:56.042Z,16.64
2023-05-06T01:56:23.657Z,16.66
2023-05-06T01:58:53.761Z,16.53
2023-05-06T02:01:21.172Z,16.59
2023-05-06T02:03:48.677Z,16.54
2023-05-06T02:06:17.551Z,16.46
2023-05-06T02:08:45.225Z,16.49
2023-05-06T02:11:17.201Z,16.51
2023-05-06T02:13:45.251Z,16.52
2023-05-06T02:16:13.284Z,16.56
2023-05-06T02:18:41.436Z,16.54
2023-05-06T02:21:10.106Z,16.43
2023-05-06T02:23:37.432Z,16.36
2023-05-06T02:26:07.700Z,16.40
2023-05-06T02:28:35.052Z,16.30
2023-05-06T02:31:02.523Z,16.31
2023-05-06T02:33:30.054Z,16.30
2023-05-06T02:35:57.375Z,16.26
2023-05-06T02:38:25.017Z,16.30
2023-05-06T02:40:52.396Z,16.32
2023-05-06T02:43:20.037Z,16.42
2023-05-06T02:45:47.915Z,16.41
2023-05-06T02:48:15.241Z,16.34
2023-05-06T02:50:42.616Z,16.29
2023-05-06T02:53:10.510Z,16.34
2023-05-06T02:55:37.925Z,16.37
2023-05-06T02:58:05.327Z,16.34
2023-05-06T03:00:33.863Z,16.41
2023-05-06T03:03:01.368Z,16.39
2023-05-06T03:05:28.788Z,16.42
2023-05-06T03:07:56.428Z,16.34
2023-05-06T03:10:24.597Z,16.35
2023-05-06T03:12:52.086Z,16.42
2023-05-06T03:15:19.641Z,16.43
2023-05-06T03:17:49.170Z,16.21
2023-05-06T03:20:16.809Z,16.11
2023-05-06T03:22:50.725Z,16.03
2023-05-06T03:25:19.621Z,15.94
2023-05-06T03:27:47.076Z,15.92
2023-05-06T03:30:19.327Z,15.91
2023-05-06T03:32:48.942Z,15.92
2023-05-06T03:35:23.124Z,16.02
2023-05-06T03:37:54.672Z,15.97
2023-05-06T03:40:23.855Z,15.93
2023-05-06T03:42:52.337Z,16.14
2023-05-06T03:45:20.477Z,16.20
2023-05-06T03:47:48.394Z,16.22
2023-05-06T03:50:17.315Z,16.23
2023-05-06T03:52:44.818Z,16.22
2023-05-06T03:55:12.532Z,16.18
2023-05-06T03:57:40.085Z,16.11
2023-05-06T04:00:09.147Z,15.95
2023-05-06T04:02:43.638Z,16.02
2023-05-06T04:05:18.466Z,15.99
2023-05-06T04:07:46.635Z,15.86
2023-05-06T04:10:15.013Z,15.82
2023-05-06T04:12:47.288Z,15.91
2023-05-06T04:15:19.702Z,15.89
2023-05-06T04:17:47.155Z,15.89
2023-05-06T04:20:16.160Z,15.83
2023-05-06T04:22:43.520Z,15.77
2023-05-06T04:25:12.168Z,15.73
2023-05-06T04:27:40.129Z,15.87
2023-05-06T04:30:09.551Z,15.88
2023-05-06T04:32:38.710Z,15.97
2023-05-06T04:35:07.670Z,15.99
2023-05-06T04:37:35.213Z,16.01
2023-05-06T04:40:09.310Z,16.09
2023-05-06T04:42:39.569Z,16.03
2023-05-06T04:45:12.375Z,16.22
2023-05-06T04:47:43.076Z,16.16
2023-05-06T04:50:11.161Z,16.16
2023-05-06T04:52:38.563Z,16.26
2023-05-06T04:55:07.019Z,16.24
2023-05-06T04:57:37.034Z,16.27
2023-05-06T05:00:06.554Z,16.15
2023-05-06T05:02:33.982Z,16.22
2023-05-06T05:05:03.459Z,16.15
2023-05-06T05:07:31.026Z,16.36
2023-05-06T05:09:58.429Z,16.38
2023-05-06T05:12:26.158Z,16.38
2023-05-06T05:14:56.665Z,16.31
2023-05-06T05:17:23.995Z,16.50
2023-05-06T05:19:52.869Z,16.57
2023-05-06T05:22:20.848Z,16.66
2023-05-06T05:24:48.253Z,16.55
2023-05-06T05:27:17.138Z,16.66
2023-05-06T05:29:44.633Z,16.79
2023-05-06T05:32:12.015Z,16.77
2023-05-06T05:34:39.703Z,16.77
2023-05-06T05:37:07.720Z,17.01
2023-05-06T05:39:35.291Z,16.96
2023-05-06T05:42:03.690Z,16.99
2023-05-06T05:44:33.423Z,17.12
2023-05-06T05:47:03.902Z,17.26
2023-05-06T05:49:32.021Z,17.35
2023-05-06T05:51:59.462Z,17.47
2023-05-06T05:54:27.742Z,17.51
2023-05-06T05:56:55.150Z,17.56
2023-05-06T05:59:22.906Z,17.59
2023-05-06T06:01:52.889Z,17.70
2023-05-06T06:04:21.098Z,17.67
2023-05-06T06:06:48.537Z,17.81
2023-05-06T06:09:17.284Z,18.04
2023-05-06T06:11:45.523Z,18.15
2023-05-06T06:14:13.386Z,18.44
2023-05-06T06:16:40.909Z,18.64
2023-05-06T06:19:08.671Z,18.63
2023-05-06T06:21:36.839Z,18.70
2023-05-06T06:24:05.023Z,19.13
2023-05-06T06:26:32.506Z,19.14
2023-05-06T06:29:00.144Z,19.49
2023-05-06T06:31:29.353Z,20.05
2023-05-06T06:33:56.862Z,20.74
2023-05-06T06:36:24.297Z,21.25
2023-05-06T06:38:51.607Z,21.64
2023-05-06T06:41:19.010Z,21.57
2023-05-06T06:43:46.343Z,21.57
2023-05-06T06:46:25.335Z,21.40
2023-05-06T06:48:52.744Z,21.20
2023-05-06T06:51:20.147Z,21.36
2023-05-06T06:53:49.069Z,21.32
2023-05-06T06:56:16.553Z,21.39
2023-05-06T06:58:44.247Z,21.53
2023-05-06T07:01:12.719Z,21.69
2023-05-06T07:03:40.212Z,21.82
2023-05-06T07:06:08.586Z,21.78
2023-05-06T07:08:36.052Z,21.89
2023-05-06T07:11:03.594Z,21.88
2023-05-06T07:13:30.939Z,22.08
2023-05-06T07:15:58.801Z,21.83
2023-05-06T07:18:26.174Z,22.15
2023-05-06T07:20:53.759Z,22.11
2023-05-06T07:23:21.431Z,22.01
2023-05-06T07:25:49.120Z,22.05
2023-05-06T07:28:16.612Z,22.16
2023-05-06T07:30:44.071Z,22.65
2023-05-06T07:33:11.445Z,22.51
2023-05-06T07:35:41.820Z,22.56
2023-05-06T07:38:09.189Z,22.85
2023-05-06T07:40:36.607Z,22.79
2023-05-06T07:43:04.125Z,22.60
2023-05-06T07:45:31.683Z,22.62
2023-05-06T07:47:59.164Z,22.63
2023-05-06T07:50:26.694Z,22.79
2023-05-06T07:52:54.002Z,22.94
2023-05-06T07:55:21.364Z,22.87
2023-05-06T07:57:49.736Z,22.93
2023-05-06T08:00:17.334Z,23.59
2023-05-06T08:02:45.016Z,23.40
2023-05-06T08:05:15.470Z,23.45
2023-05-06T08:07:43.084Z,23.40
2023-05-06T08:10:11.083Z,23.44
2023-05-06T08:12:38.696Z,23.68
2023-05-06T08:15:07.037Z,23.40
2023-05-06T08:17:34.332Z,23.69
2023-05-06T08:20:01.827Z,23.77
2023-05-06T08:22:29.311Z,23.69
2023-05-06T08:25:05.761Z,24.12
2023-05-06T08:27:33.130Z,24.01
2023-05-06T08:30:00.658Z,24.40
2023-05-06T08:32:30.732Z,24.66
2023-05-06T08:34:59.813Z,24.82
2023-05-06T08:37:27.224Z,24.57
2023-05-06T08:39:58.161Z,24.67
2023-05-06T08:42:28.271Z,24.60
2023-05-06T08:44:56.362Z,24.53
2023-05-06T08:47:24.066Z,24.50
2023-05-06T08:49:51.551Z,25.01
2023-05-06T08:52:21.429Z,24.83
2023-05-06T08:54:51.956Z,24.58
2023-05-06T08:57:19.433Z,25.09
2023-05-06T08:59:47.611Z,25.28
2023-05-06T09:02:15.686Z,24.95
2023-05-06T09:04:43.148Z,25.18
2023-05-06T09:07:10.659Z,25.55
2023-05-06T09:09:38.044Z,25.49
2023-05-06T09:12:10.266Z,25.64
2023-05-06T09:14:37.617Z,25.79
2023-05-06T09:17:05.467Z,25.85
2023-05-06T09:19:38.097Z,25.64
2023-05-06T09:22:05.753Z,25.91
2023-05-06T09:24:33.107Z,25.98
2023-05-06T09:27:01.580Z,25.60
2023-05-06T09:29:28.907Z,25.38
2023-05-06T09:31:56.565Z,25.74
2023-05-06T09:34:27.524Z,26.34
2023-05-06T09:36:57.192Z,26.28
2023-05-06T09:39:30.872Z,26.34
2023-05-06T09:41:58.373Z,26.14
2023-05-06T09:44:26.895Z,25.94
2023-05-06T09:46:54.522Z,26.31
2023-05-06T09:49:22.129Z,25.94
2023-05-06T09:51:51.666Z,26.56
2023-05-06T09:54:19.506Z,26.79
2023-05-06T09:56:48.087Z,26.31
2023-05-06T09:59:18.437Z,26.37
2023-05-06T10:01:47.016Z,26.58
2023-05-06T10:04:17.402Z,26.56
2023-05-06T10:06:49.041Z,26.59
2023-05-06T10:09:17.573Z,26.99
2023-05-06T10:11:47.150Z,27.15
2023-05-06T10:14:14.651Z,27.18
2023-05-06T10:16:43.064Z,27.06
2023-05-06T10:19:11.911Z,26.85
2023-05-06T10:21:43.605Z,27.23
2023-05-06T10:24:19.163Z,27.33
2023-05-06T10:26:46.875Z,27.12
2023-05-06T10:29:17.382Z,27.45
2023-05-06T10:31:52.589Z,27.40
2023-05-06T10:34:21.358Z,27.70
2023-05-06T10:36:52.026Z,27.58
2023-05-06T10:39:20.954Z,27.40
2023-05-06T10:41:49.079Z,27.36
2023-05-06T10:44:16.464Z,27.22
2023-05-06T10:46:58.646Z,27.29
2023-05-06T10:49:27.625Z,27.59
2023-05-06T10:52:16.965Z,28.08
2023-05-06T10:54:51.630Z,27.94
2023-05-06T10:57:22.533Z,27.32
2023-05-06T10:59:50.003Z,27.44
2023-05-06T11:02:20.045Z,27.54
2023-05-06T11:04:53.040Z,27.61
2023-05-06T11:07:24.042Z,28.04
2023-05-06T11:10:02.190Z,27.79
2023-05-06T11:12:52.724Z,27.65
2023-05-06T11:15:26.538Z,27.96
2023-05-06T11:17:55.683Z,28.23
2023-05-06T11:20:25.610Z,27.66
2023-05-06T11:22:54.005Z,27.84
2023-05-06T11:25:51.345Z,27.42
2023-05-06T11:28:18.820Z,27.69
2023-05-06T11:30:54.795Z,28.43
2023-05-06T11:33:25.066Z,28.25
2023-05-06T11:35:53.163Z,28.08
2023-05-06T11:38:20.568Z,28.21
2023-05-06T11:40:49.111Z,27.92
2023-05-06T11:43:17.000Z,27.76
2023-05-06T11:45:46.737Z,27.88
2023-05-06T11:48:18.592Z,28.02
2023-05-06T11:50:47.394Z,27.78
2023-05-06T11:53:19.067Z,28.11
2023-05-06T11:55:47.684Z,28.16
2023-05-06T11:58:25.516Z,28.35
2023-05-06T12:00:58.049Z,28.03
2023-05-06T12:03:27.660Z,28.03
2023-05-06T12:05:55.821Z,28.09
2023-05-06T12:08:28.257Z,28.07
2023-05-06T12:11:00.538Z,27.94
2023-05-06T12:13:28.987Z,27.93
2023-05-06T12:15:59.497Z,28.02
2023-05-06T12:18:27.917Z,28.39
2023-05-06T12:21:02.594Z,28.08
2023-05-06T12:23:30.093Z,28.20
2023-05-06T12:26:04.064Z,27.92
2023-05-06T12:28:33.229Z,28.34
2023-05-06T12:31:20.594Z,28.01
2023-05-06T12:33:51.495Z,28.20
2023-05-06T12:36:19.378Z,28.37
2023-05-06T12:38:55.022Z,28.50
2023-05-06T12:41:25.980Z,28.38
2023-05-06T12:43:53.409Z,28.45
2023-05-06T12:46:21.223Z,28.58
2023-05-06T12:49:01.929Z,28.27
2023-05-06T12:51:31.014Z,27.98
2023-05-06T12:53:58.549Z,28.29
2023-05-06T12:56:26.088Z,27.84
2023-05-06T12:58:58.362Z,27.98
2023-05-06T13:01:25.940Z,27.81
2023-05-06T13:03:57.111Z,28.22
2023-05-06T13:06:24.509Z,27.93
2023-05-06T13:08:51.928Z,27.75
2023-05-06T13:11:22.295Z,27.87
2023-05-06T13:13:49.666Z,27.78
2023-05-06T13:16:17.358Z,27.40
2023-05-06T13:18:44.734Z,27.15
2023-05-06T13:21:14.072Z,27.08
2023-05-06T13:23:46.926Z,27.01
2023-05-06T13:26:15.024Z,27.20
2023-05-06T13:28:42.392Z,27.59
2023-05-06T13:31:12.678Z,27.70
2023-05-06T13:33:40.222Z,27.15
2023-05-06T13:36:07.777Z,27.29
2023-05-06T13:38:35.115Z,27.33
2023-05-06T13:41:21.446Z,27.32
2023-05-06T13:43:48.760Z,27.33
2023-05-06T13:46:16.250Z,27.24
2023-05-06T13:48:44.749Z,27.29
2023-05-06T13:51:12.206Z,27.61
2023-05-06T13:53:39.637Z,27.34
2023-05-06T13:56:07.680Z,27.26
2023-05-06T13:58:35.384Z,27.33
2023-05-06T14:01:03.640Z,27.12
2023-05-06T14:03:30.989Z,27.05
2023-05-06T14:05:58.512Z,26.86
2023-05-06T14:08:27.118Z,26.87
2023-05-06T14:10:54.641Z,26.88
2023-05-06T14:13:22.047Z,26.72
2023-05-06T14:15:49.540Z,26.83
2023-05-06T14:18:17.112Z,27.11
2023-05-06T14:20:47.297Z,26.71
2023-05-06T14:23:14.690Z,26.69
2023-05-06T14:25:43.451Z,26.50
2023-05-06T14:28:11.168Z,26.57
2023-05-06T14:30:39.315Z,26.38
2023-05-06T14:33:06.836Z,26.31
2023-05-06T14:35:35.308Z,26.57
2023-05-06T14:38:03.273Z,26.44
2023-05-06T14:40:30.654Z,26.26
2023-05-06T14:42:57.987Z,26.12
2023-05-06T14:45:25.476Z,26.09
2023-05-06T14:47:52.982Z,26.13
2023-05-06T14:50:20.547Z,25.96
2023-05-06T14:52:48.279Z,25.80
2023-05-06T14:55:16.045Z,25.72
2023-05-06T14:57:43.316Z,25.81
2023-05-06T15:00:12.771Z,25.75
2023-05-06T15:02:40.951Z,25.60
2023-05-06T15:05:10.308Z,25.64
2023-05-06T15:07:37.946Z,25.64
2023-05-06T15:10:05.732Z,25.57
2023-05-06T15:12:34.247Z,25.56
2023-05-06T15:15:01.611Z,25.66
2023-05-06T15:17:29.498Z,25.67
2023-05-06T15:19:56.952Z,25.69
2023-05-06T15:22:24.321Z,25.58
2023-05-06T15:24:51.800Z,25.51
2023-05-06T15:27:20.139Z,25.53
2023-05-06T15:29:47.518Z,25.44
2023-05-06T15:32:15.104Z,25.40
2023-05-06T15:34:42.929Z,25.29
2023-05-06T15:37:10.626Z,25.28
2023-05-06T15:39:38.216Z,25.31
2023-05-06T15:42:07.325Z,25.36
2023-05-06T15:44:34.813Z,25.52
2023-05-06T15:47:02.184Z,25.76
2023-05-06T15:52:01.835Z,25.76
2023-05-06T15:54:29.207Z,25.94
2023-05-06T15:56:58.353Z,25.83
2023-05-06T15:59:26.991Z,25.76
2023-05-06T16:04:25.046Z,25.70
2023-05-06T16:06:52.734Z,25.64
2023-05-06T16:09:20.088Z,25.92
2023-05-06T16:11:50.379Z,25.93
2023-05-06T16:14:18.895Z,26.05
2023-05-06T16:16:46.932Z,25.94
2023-05-06T16:19:14.374Z,25.69
2023-05-06T16:21:41.795Z,25.67
2023-05-06T16:24:09.328Z,25.93
2023-05-06T16:26:36.719Z,25.96
2023-05-06T16:29:04.053Z,25.98
2023-05-06T16:31:33.263Z,26.00
2023-05-06T16:34:00.951Z,25.75
2023-05-06T16:36:28.719Z,25.78
2023-05-06T16:38:56.000Z,25.61
2023-05-06T16:41:23.420Z,25.54
2023-05-06T16:43:50.754Z,25.42
2023-05-06T16:46:18.430Z,25.41
2023-05-06T16:48:46.226Z,25.13
2023-05-06T16:51:15.763Z,25.21
2023-05-06T16:53:45.220Z,25.05
2023-05-06T16:56:13.614Z,25.06
2023-05-06T16:58:42.517Z,25.23
2023-05-06T17:01:12.890Z,25.22
2023-05-06T17:03:40.608Z,25.16
2023-05-06T17:06:08.372Z,25.13
2023-05-06T17:08:37.214Z,25.02
2023-05-06T17:11:07.556Z,25.02
2023-05-06T17:13:34.934Z,25.04
2023-05-06T17:16:03.018Z,25.01
2023-05-06T17:18:30.336Z,24.98
2023-05-06T17:20:57.855Z,24.90
2023-05-06T17:23:25.345Z,24.79
2023-05-06T17:25:52.880Z,24.70
2023-05-06T17:28:20.570Z,24.74
2023-05-06T17:30:48.036Z,24.87
2023-05-06T17:33:16.070Z,24.83
2023-05-06T17:35:43.531Z,24.77
2023-05-06T17:38:12.282Z,24.88
2023-05-06T17:40:42.201Z,24.74
2023-05-06T17:43:09.694Z,24.77
2023-05-06T17:45:37.159Z,24.71
2023-05-06T17:48:04.796Z,24.64
2023-05-06T17:50:32.264Z,24.52
2023-05-06T17:52:59.599Z,24.50
2023-05-06T17:55:27.324Z,24.40
2023-05-06T17:57:54.612Z,24.26
2023-05-06T18:00:22.254Z,24.18
2023-05-06T18:02:49.733Z,24.13
2023-05-06T18:05:17.491Z,24.10
2023-05-06T18:07:47.995Z,24.10
2023-05-06T18:10:15.498Z,24.06
2023-05-06T18:12:45.943Z,24.09
2023-05-06T18:15:14.311Z,24.07
2023-05-06T18:17:41.688Z,23.92
2023-05-06T18:20:10.313Z,23.65
2023-05-06T18:22:39.040Z,23.66
2023-05-06T18:25:07.182Z,23.44
2023-05-06T18:27:34.829Z,23.43
2023-05-06T18:30:03.482Z,23.27
2023-05-06T18:32:32.147Z,23.19
2023-05-06T18:34:59.986Z,23.07
2023-05-06T18:37:30.502Z,23.00
2023-05-06T18:39:57.923Z,22.94
2023-05-06T18:42:27.418Z,22.88
2023-05-06T18:44:54.895Z,22.83
2023-05-06T18:47:22.271Z,22.75
2023-05-06T18:49:49.713Z,22.75
2023-05-06T18:52:17.854Z,22.72
2023-05-06T18:54:46.245Z,22.68
2023-05-06T18:57:13.951Z,22.67
2023-05-06T18:59:41.694Z,22.63
2023-05-06T19:02:09.161Z,22.57
2023-05-06T19:04:36.709Z,22.51
2023-05-06T19:07:04.312Z,22.46
2023-05-06T19:09:36.733Z,22.54
2023-05-06T19:12:04.690Z,22.47
2023-05-06T19:14:32.566Z,22.46
2023-05-06T19:17:00.076Z,22.45
2023-05-06T19:19:27.575Z,22.44
2023-05-06T19:21:54.904Z,22.44
2023-05-06T19:24:22.322Z,22.38
2023-05-06T19:26:49.635Z,22.45
2023-05-06T19:29:17.231Z,22.41
2023-05-06T19:31:45.171Z,22.39
2023-05-06T19:34:12.668Z,22.48
2023-05-06T19:36:40.020Z,22.41
2023-05-06T19:39:07.402Z,22.32
2023-05-06T19:41:34.767Z,22.39
2023-05-06T19:44:02.167Z,22.39
2023-05-06T19:46:29.608Z,22.22
2023-05-06T19:49:00.227Z,22.22
2023-05-06T19:51:28.348Z,22.38
2023-05-06T19:53:55.794Z,22.30
2023-05-06T19:56:23.129Z,22.39
2023-05-06T19:58:53.403Z,22.30
2023-05-06T20:01:26.741Z,22.08
2023-05-06T20:03:55.230Z,22.11
2023-05-06T20:06:23.842Z,22.21
2023-05-06T20:08:51.296Z,22.01
2023-05-06T20:11:18.733Z,21.65
2023-05-06T20:13:46.248Z,21.68
2023-05-06T20:16:17.157Z,21.59
2023-05-06T20:18:45.274Z,21.52
2023-05-06T20:21:15.630Z,21.52
2023-05-06T20:23:43.170Z,21.45
2023-05-06T20:26:10.528Z,21.48
2023-05-06T20:28:39.223Z,21.46
2023-05-06T20:31:06.818Z,21.35
2023-05-06T20:33:34.421Z,21.34
2023-05-06T20:36:05.892Z,21.26
2023-05-06T20:38:33.654Z,21.29
2023-05-06T20:41:02.857Z,21.29
2023-05-06T20:43:30.627Z,21.01
2023-05-06T20:45:58.112Z,21.18
2023-05-06T20:48:28.013Z,20.99
2023-05-06T20:50:57.105Z,21.02
2023-05-06T20:53:24.614Z,20.99
2023-05-06T20:55:51.972Z,20.82
2023-05-06T20:58:19.481Z,20.87
2023-05-06T21:00:46.920Z,20.79
2023-05-06T21:03:14.566Z,20.99
2023-05-06T21:05:43.798Z,20.93
2023-05-06T21:08:12.437Z,20.88
2023-05-06T21:10:39.729Z,20.72
2023-05-06T21:13:08.000Z,20.66
2023-05-06T21:15:37.634Z,20.67
2023-05-06T21:18:05.064Z,20.68
2023-05-06T21:20:32.492Z,20.49
2023-05-06T21:22:59.800Z,20.58
2023-05-06T21:25:27.172Z,20.70
2023-05-06T21:27:54.525Z,20.56
2023-05-06T21:30:22.100Z,20.52
2023-05-06T21:32:49.965Z,20.52
2023-05-06T21:35:17.743Z,20.58
2023-05-06T21:37:45.079Z,20.52
2023-05-06T21:40:12.728Z,20.43
2023-05-06T21:42:40.061Z,20.38
2023-05-06T21:45:07.833Z,20.41
2023-05-06T21:47:35.307Z,20.34
2023-05-06T21:50:03.370Z,20.18
2023-05-06T21:52:31.258Z,20.18
2023-05-06T21:54:58.881Z,20.14
2023-05-06T21:57:26.552Z,20.14
2023-05-06T21:59:54.007Z,20.21
2023-05-06T22:04:48.728Z,19.97
2023-05-06T22:07:16.563Z,19.99
2023-05-06T22:09:44.414Z,19.97
2023-05-06T22:12:12.691Z,19.95
2023-05-06T22:14:41.725Z,19.96
2023-05-06T22:17:10.487Z,20.04
2023-05-06T22:19:38.519Z,19.96
2023-05-06T22:22:09.611Z,20.05
2023-05-06T22:24:37.056Z,20.02
2023-05-06T22:27:04.362Z,20.01
2023-05-06T22:29:34.972Z,20.22
2023-05-06T22:32:02.393Z,20.09
2023-05-06T22:34:30.048Z,20.04
2023-05-06T22:36:58.325Z,19.91
2023-05-06T22:39:27.761Z,19.89
2023-05-06T22:41:55.080Z,19.94
2023-05-06T22:44:23.085Z,20.15
2023-05-06T22:46:50.505Z,20.11
2023-05-06T22:49:19.443Z,19.98
2023-05-06T22:51:46.895Z,20.00
2023-05-06T22:54:14.252Z,19.86
2023-05-06T22:56:41.570Z,19.98
2023-05-06T22:59:08.979Z,19.75
2023-05-06T23:01:36.358Z,19.59
2023-05-06T23:04:03.999Z,19.46
2023-05-06T23:06:31.747Z,19.32
2023-05-06T23:09:01.959Z,19.29
2023-05-06T23:11:29.277Z,19.22
2023-05-06T23:13:56.722Z,19.07
2023-05-06T23:16:24.008Z,19.07
2023-05-06T23:18:51.391Z,19.09
2023-05-06T23:21:18.735Z,19.06
2023-05-06T23:23:46.125Z,19.12
2023-05-06T23:26:13.454Z,19.14
2023-05-06T23:28:41.184Z,19.10
2023-05-06T23:31:08.552Z,19.20
2023-05-06T23:33:35.923Z,19.13
2023-05-06T23:36:03.489Z,19.15
2023-05-06T23:38:31.017Z,19.18
2023-05-06T23:40:58.447Z,19.20
2023-05-06T23:43:25.981Z,19.26
2023-05-06T23:45:53.473Z,19.19
2023-05-06T23:48:21.108Z,19.19
2023-05-06T23:50:48.964Z,19.18
2023-05-06T23:53:16.341Z,19.22
2023-05-06T23:55:44.150Z,19.42
2023-05-06T23:58:11.679Z,19.40
